Hattiesburg Bobby L Chain Municipal Airport Hattiesburg US
ICAO: KHBG
IATA: HBG
Category: Medium
Scheduled Services: No

Elevation: 151 ft
TransAlt. 18000 ft.

Airport Communications:
ASOS:135.425
HOUSTON CNTR:126.8
CTAF/UNICOM:122.8

KHBG Zoom In..

If you have problems with the map follow the link
https://www.worldairports.se/pages/airport.php?
ICAO=KHBG

Runways:

(A) RW 13 length 6094 ft width 150 ft
---- / hdg 132

(B) RW 31 length 6094 ft width 150 ft
---- / hdg 312

Location; KHBG
Day. 18 / Time. 11.53 Zulu
* Altimeter: 30.22
* Temperature: 15° c. 59°f.
* Wind from: 100° Speed 05 kn.
Dewpoint: 13° c.
Visibility: 10 Statute Miles.
Clouds: Overcast 1400 ft.

KHBG 181153Z AUTO 10005KT 10SM OVC014 15/13 A3022 RMK AO2 SLP232 60000 T01500128 10172 20144 55012


Wind From 100°
Speed 05 kn.

 
 
jpsmedia worldairports.se 2020   terms of use